Time,TemperatureF,DewpointF,PressureIn,WindDirection,WindDirectionDegrees,WindSpeedMPH,WindSpeedGustMPH,Humidity,HourlyPrecipIn,Conditions,Clouds,dailyrainin,SoftwareType,DateUTC
2013-05-20 00:00:00,77.0,71.1,29.92,ESE,112,6.3,-999.0,82,-99.99,,,0.00,Acu-Link.com,2013-05-20 04:00:00,
2013-05-20 00:15:00,77.2,70.9,29.92,ESE,112,4.2,-999.0,81,-99.99,,,0.00,Acu-Link.com,2013-05-20 04:15:00,
2013-05-20 00:30:00,77.0,71.1,29.91,East,90,5.3,-999.0,82,-99.99,,,0.00,Acu-Link.com,2013-05-20 04:30:00,
2013-05-20 00:45:00,76.8,71.2,29.90,East,90,2.7,-999.0,83,-99.99,,,0.00,Acu-Link.com,2013-05-20 04:45:00,
2013-05-20 01:01:00,76.8,71.2,29.91,ESE,112,4.2,-999.0,83,-99.99,,,0.00,Acu-Link.com,2013-05-20 05:01:00,
2013-05-20 01:16:00,77.0,71.4,29.89,ESE,112,6.8,-999.0,83,-99.99,,,0.00,Acu-Link.com,2013-05-20 05:16:00,
2013-05-20 01:31:00,77.0,71.8,29.90,ESE,112,4.2,-999.0,84,-99.99,,,0.00,Acu-Link.com,2013-05-20 05:31:00,
2013-05-20 01:46:00,77.0,72.1,29.90,SSE,157,3.2,-999.0,85,-99.99,,,0.00,Acu-Link.com,2013-05-20 05:46:00,
2013-05-20 02:01:00,76.8,71.9,29.89,ESE,112,3.7,-999.0,85,-99.99,,,0.00,Acu-Link.com,2013-05-20 06:01:00,
2013-05-20 02:16:00,76.6,71.7,29.88,ESE,112,4.2,-999.0,85,-99.99,,,0.00,Acu-Link.com,2013-05-20 06:16:00,
2013-05-20 02:32:00,76.8,72.3,29.87,ESE,112,4.2,-999.0,86,-99.99,,,0.00,Acu-Link.com,2013-05-20 06:32:00,
2013-05-20 02:47:00,76.8,72.3,29.87,ESE,112,2.2,-999.0,86,-99.99,,,0.00,Acu-Link.com,2013-05-20 06:47:00,
2013-05-20 03:02:00,76.8,72.3,29.87,ESE,112,2.2,-999.0,86,-99.99,,,0.00,Acu-Link.com,2013-05-20 07:02:00,
2013-05-20 03:17:00,76.5,72.0,29.87,SE,135,1.7,-999.0,86,-99.99,,,0.00,Acu-Link.com,2013-05-20 07:17:00,
2013-05-20 03:32:00,76.1,71.9,29.87,ESE,112,1.7,-999.0,87,-99.99,,,0.00,Acu-Link.com,2013-05-20 07:32:00,
2013-05-20 03:47:00,75.9,72.1,29.86,ESE,112,0.0,-999.0,88,-99.99,,,0.00,Acu-Link.com,2013-05-20 07:47:00,
2013-05-20 04:02:00,75.9,72.4,29.86,ESE,112,2.2,-999.0,89,-99.99,,,0.00,Acu-Link.com,2013-05-20 08:02:00,
2013-05-20 04:18:00,75.9,72.4,29.85,SE,135,3.2,-999.0,89,-99.99,,,0.00,Acu-Link.com,2013-05-20 08:18:00,
2013-05-20 04:34:00,75.9,72.4,29.85,ESE,112,4.2,-999.0,89,-99.99,,,0.00,Acu-Link.com,2013-05-20 08:34:00,
2013-05-20 04:49:00,75.9,72.4,29.85,SE,135,1.7,-999.0,89,-99.99,,,0.00,Acu-Link.com,2013-05-20 08:49:00,
2013-05-20 05:04:00,75.7,72.2,29.85,ESE,112,0.0,-999.0,89,-99.99,,,0.00,Acu-Link.com,2013-05-20 09:04:00,
2013-05-20 05:19:00,75.7,72.6,29.85,East,90,4.7,-999.0,90,-99.99,,,0.00,Acu-Link.com,2013-05-20 09:19:00,
2013-05-20 05:34:00,76.1,72.9,29.84,ESE,112,4.2,-999.0,90,-99.99,,,0.00,Acu-Link.com,2013-05-20 09:34:00,
2013-05-20 05:49:00,76.3,72.8,29.85,ESE,112,3.2,-999.0,89,-99.99,,,0.00,Acu-Link.com,2013-05-20 09:49:00,
2013-05-20 06:05:00,76.5,73.0,29.84,ESE,112,4.2,-999.0,89,-99.99,,,0.00,Acu-Link.com,2013-05-20 10:05:00,
2013-05-20 06:20:00,76.5,72.7,29.85,ESE,112,2.2,-999.0,88,-99.99,,,0.00,Acu-Link.com,2013-05-20 10:20:00,
2013-05-20 06:35:00,76.5,72.7,29.86,SSE,157,4.2,-999.0,88,-99.99,,,0.00,Acu-Link.com,2013-05-20 10:35:00,
2013-05-20 06:50:00,76.6,72.4,29.87,SSE,157,4.2,-999.0,87,-99.99,,,0.00,Acu-Link.com,2013-05-20 10:50:00,
2013-05-20 07:05:00,77.2,72.7,29.88,ESE,112,3.7,-999.0,86,-99.99,,,0.00,Acu-Link.com,2013-05-20 11:05:00,
2013-05-20 07:20:00,77.5,72.6,29.89,SSE,157,5.3,-999.0,85,-99.99,,,0.00,Acu-Link.com,2013-05-20 11:20:00,
2013-05-20 07:35:00,78.3,73.4,29.89,ESE,112,1.1,-999.0,85,-99.99,,,0.00,Acu-Link.com,2013-05-20 11:35:00,
2013-05-20 07:50:00,78.8,72.8,29.89,ESE,112,5.3,-999.0,82,-99.99,,,0.00,Acu-Link.com,2013-05-20 11:50:00,
2013-05-20 08:06:00,77.0,73.2,29.90,SSW,202,6.3,-999.0,88,-99.99,,,0.00,Acu-Link.com,2013-05-20 12:06:00,
2013-05-20 08:21:00,76.6,73.4,29.90,WSW,247,2.7,-999.0,90,-99.99,,,0.02,Acu-Link.com,2013-05-20 12:21:00,
2013-05-20 08:36:00,76.5,73.3,29.90,WSW,247,0.0,-999.0,90,-99.99,,,0.02,Acu-Link.com,2013-05-20 12:36:00,
2013-05-20 08:51:00,75.6,72.1,29.91,ESE,112,2.2,-999.0,89,-99.99,,,0.02,Acu-Link.com,2013-05-20 12:51:00,
2013-05-20 09:06:00,75.2,72.7,29.90,NNE,22,4.2,-999.0,92,-99.99,,,0.02,Acu-Link.com,2013-05-20 13:06:00,
2013-05-20 09:21:00,74.7,73.2,29.92,NNW,337,6.8,-999.0,95,-99.99,,,0.02,Acu-Link.com,2013-05-20 13:21:00,
2013-05-20 09:36:00,74.7,73.8,29.92,NNE,22,1.7,-999.0,97,-99.99,,,0.04,Acu-Link.com,2013-05-20 13:36:00,
2013-05-20 09:52:00,75.0,73.8,29.91,NE,45,3.2,-999.0,96,-99.99,,,0.04,Acu-Link.com,2013-05-20 13:52:00,
2013-05-20 10:07:00,75.7,74.5,29.91,NNE,22,2.2,-999.0,96,-99.99,,,0.04,Acu-Link.com,2013-05-20 14:07:00,
2013-05-20 10:22:00,73.8,71.0,29.92,ESE,112,8.9,-999.0,91,-99.99,,,0.04,Acu-Link.com,2013-05-20 14:22:00,
2013-05-20 10:37:00,72.0,70.8,29.92,WSW,247,6.3,-999.0,96,-99.99,,,0.06,Acu-Link.com,2013-05-20 14:37:00,
2013-05-20 10:52:00,72.0,71.7,29.92,WSW,247,4.7,-999.0,99,-99.99,,,0.23,Acu-Link.com,2013-05-20 14:52:00,
2013-05-20 11:07:00,71.1,70.8,29.94,West,270,5.8,-999.0,99,-99.99,,,1.26,Acu-Link.com,2013-05-20 15:07:00,
2013-05-20 11:22:00,70.9,70.6,29.93,West,270,7.3,-999.0,99,-99.99,,,1.81,Acu-Link.com,2013-05-20 15:22:00,
2013-05-20 11:37:00,70.9,70.6,29.92,WNW,292,3.7,-999.0,99,-99.99,,,1.98,Acu-Link.com,2013-05-20 15:37:00,
2013-05-20 11:52:00,71.1,70.8,29.94,SW,225,1.7,-999.0,99,-99.99,,,2.08,Acu-Link.com,2013-05-20 15:52:00,
2013-05-20 12:08:00,71.8,71.5,29.94,SSE,157,13.5,-999.0,99,-99.99,,,2.69,Acu-Link.com,2013-05-20 16:08:00,
2013-05-20 12:23:00,70.0,69.7,29.93,ESE,112,4.7,-999.0,99,-99.99,,,3.36,Acu-Link.com,2013-05-20 16:23:00,
2013-05-20 12:38:00,71.1,70.8,29.93,SSW,202,7.8,-999.0,99,-99.99,,,3.50,Acu-Link.com,2013-05-20 16:38:00,
2013-05-20 12:53:00,72.9,72.6,29.92,East,90,5.8,-999.0,99,-99.99,,,3.53,Acu-Link.com,2013-05-20 16:53:00,
2013-05-20 13:08:00,72.9,72.6,29.92,NE,45,6.3,-999.0,99,-99.99,,,3.54,Acu-Link.com,2013-05-20 17:08:00,
2013-05-20 13:23:00,73.4,73.1,29.91,NE,45,4.2,-999.0,99,-99.99,,,3.54,Acu-Link.com,2013-05-20 17:23:00,
2013-05-20 13:38:00,73.4,72.2,29.90,East,90,5.8,-999.0,96,-99.99,,,3.54,Acu-Link.com,2013-05-20 17:38:00,
2013-05-20 13:53:00,74.1,72.9,29.91,ESE,112,5.3,-999.0,96,-99.99,,,3.54,Acu-Link.com,2013-05-20 17:53:00,
2013-05-20 14:09:00,74.3,72.1,29.92,ESE,112,4.7,-999.0,93,-99.99,,,3.54,Acu-Link.com,2013-05-20 18:09:00,
2013-05-20 14:24:00,74.5,72.3,29.91,ENE,67,4.2,-999.0,93,-99.99,,,3.54,Acu-Link.com,2013-05-20 18:24:00,
2013-05-20 14:39:00,74.8,73.0,29.90,ENE,67,4.7,-999.0,94,-99.99,,,3.54,Acu-Link.com,2013-05-20 18:39:00,
2013-05-20 14:54:00,74.1,72.3,29.90,SSW,202,2.7,-999.0,94,-99.99,,,3.54,Acu-Link.com,2013-05-20 18:54:00,
2013-05-20 15:09:00,74.1,72.3,29.90,SSE,157,7.8,-999.0,94,-99.99,,,3.54,Acu-Link.com,2013-05-20 19:09:00,
2013-05-20 15:24:00,72.1,70.6,29.88,East,90,5.8,-999.0,95,-99.99,,,3.56,Acu-Link.com,2013-05-20 19:24:00,
2013-05-20 15:39:00,71.8,70.3,29.89,South,180,8.3,-999.0,95,-99.99,,,3.56,Acu-Link.com,2013-05-20 19:39:00,
2013-05-20 15:55:00,70.9,68.1,29.88,SE,135,5.8,-999.0,91,-99.99,,,3.56,Acu-Link.com,2013-05-20 19:55:00,
2013-05-20 16:10:00,71.2,69.1,29.87,SE,135,7.3,-999.0,93,-99.99,,,3.56,Acu-Link.com,2013-05-20 20:10:00,
2013-05-20 16:25:00,71.8,69.7,29.86,ENE,67,1.7,-999.0,93,-99.99,,,3.58,Acu-Link.com,2013-05-20 20:25:00,
2013-05-20 16:40:00,72.7,70.6,29.86,NNW,337,2.2,-999.0,93,-99.99,,,3.58,Acu-Link.com,2013-05-20 20:40:00,
2013-05-20 16:55:00,73.0,70.9,29.86,NNW,337,2.7,-999.0,93,-99.99,,,3.58,Acu-Link.com,2013-05-20 20:55:00,
2013-05-20 17:10:00,73.2,70.7,29.86,NNE,22,2.2,-999.0,92,-99.99,,,3.58,Acu-Link.com,2013-05-20 21:10:00,
2013-05-20 17:25:00,74.1,71.6,29.86,NE,45,2.7,-999.0,92,-99.99,,,3.58,Acu-Link.com,2013-05-20 21:25:00,
2013-05-20 17:40:00,74.5,72.0,29.85,East,90,1.7,-999.0,92,-99.99,,,3.58,Acu-Link.com,2013-05-20 21:40:00,
2013-05-20 17:55:00,74.8,72.3,29.85,ESE,112,0.0,-999.0,92,-99.99,,,3.58,Acu-Link.com,2013-05-20 21:55:00,
2013-05-20 18:11:00,75.0,72.5,29.84,ENE,67,2.2,-999.0,92,-99.99,,,3.58,Acu-Link.com,2013-05-20 22:11:00,
2013-05-20 18:26:00,75.2,72.7,29.84,North,0,4.2,-999.0,92,-99.99,,,3.58,Acu-Link.com,2013-05-20 22:26:00,
2013-05-20 18:41:00,75.0,72.5,29.83,East,90,4.2,-999.0,92,-99.99,,,3.58,Acu-Link.com,2013-05-20 22:41:00,
2013-05-20 18:56:00,74.8,72.6,29.82,NE,45,4.7,-999.0,93,-99.99,,,3.58,Acu-Link.com,2013-05-20 22:56:00,
2013-05-20 19:11:00,74.8,72.6,29.82,East,90,2.7,-999.0,93,-99.99,,,3.58,Acu-Link.com,2013-05-20 23:11:00,
2013-05-20 19:27:00,74.8,73.0,29.83,NNE,22,3.7,-999.0,94,-99.99,,,3.58,Acu-Link.com,2013-05-20 23:27:00,
2013-05-20 19:42:00,74.7,73.2,29.85,NE,45,0.0,-999.0,95,-99.99,,,3.58,Acu-Link.com,2013-05-20 23:42:00,
2013-05-20 19:58:00,74.7,73.2,29.87,NNE,22,3.2,-999.0,95,-99.99,,,3.58,Acu-Link.com,2013-05-20 23:58:00,
2013-05-20 20:13:00,74.5,73.0,29.87,NE,45,3.2,-999.0,95,-99.99,,,3.58,Acu-Link.com,2013-05-21 00:13:00,
2013-05-20 20:28:00,74.7,73.2,29.87,NE,45,1.7,-999.0,95,-99.99,,,3.58,Acu-Link.com,2013-05-21 00:28:00,
2013-05-20 20:43:00,74.7,73.5,29.87,NNE,22,3.2,-999.0,96,-99.99,,,3.58,Acu-Link.com,2013-05-21 00:43:00,
2013-05-20 20:58:00,74.7,73.5,29.88,NW,315,2.7,-999.0,96,-99.99,,,3.58,Acu-Link.com,2013-05-21 00:58:00,
2013-05-20 21:13:00,74.7,73.5,29.88,NE,45,1.7,-999.0,96,-99.99,,,3.58,Acu-Link.com,2013-05-21 01:13:00,
2013-05-20 21:29:00,74.5,73.3,29.88,NE,45,0.0,-999.0,96,-99.99,,,3.58,Acu-Link.com,2013-05-21 01:29:00,
2013-05-20 21:44:00,74.3,73.4,29.88,NE,45,0.0,-999.0,97,-99.99,,,3.58,Acu-Link.com,2013-05-21 01:44:00,
2013-05-20 21:59:00,74.3,73.7,29.90,WSW,247,2.7,-999.0,98,-99.99,,,3.58,Acu-Link.com,2013-05-21 01:59:00,
2013-05-20 22:14:00,73.0,70.2,29.91,SSW,202,10.9,-999.0,91,-99.99,,,3.58,Acu-Link.com,2013-05-21 02:14:00,
2013-05-20 22:29:00,71.6,69.8,29.91,SSW,202,7.8,-999.0,94,-99.99,,,3.58,Acu-Link.com,2013-05-21 02:29:00,
2013-05-20 22:44:00,69.8,69.5,29.90,SSE,157,9.4,-999.0,99,-99.99,,,3.66,Acu-Link.com,2013-05-21 02:44:00,
2013-05-20 22:59:00,70.5,69.6,29.91,South,180,2.7,-999.0,97,-99.99,,,4.14,Acu-Link.com,2013-05-21 02:59:00,
2013-05-20 23:14:00,70.3,69.4,29.92,NNE,22,5.8,-999.0,97,-99.99,,,4.14,Acu-Link.com,2013-05-21 03:14:00,
2013-05-20 23:29:00,70.3,69.1,29.93,NE,45,6.8,-999.0,96,-99.99,,,4.14,Acu-Link.com,2013-05-21 03:29:00,
2013-05-20 23:45:00,69.4,67.6,29.92,East,90,4.7,-999.0,94,-99.99,,,4.14,Acu-Link.com,2013-05-21 03:45:00,